sensor_id;sensor_type;location;lat;lon;timestamp;pressure;altitude;pressure_sealevel;temperature;humidity
10992;BME280;5549;47.028;15.514;2023-04-15T00:00:08;95151.38;;;7.51;83.08
10992;BME280;5549;47.028;15.514;2023-04-15T00:02:42;95151.94;;;7.45;83.09
10992;BME280;5549;47.028;15.514;2023-04-15T00:05:12;95146.72;;;7.45;82.95
10992;BME280;5549;47.028;15.514;2023-04-15T00:07:39;95146.16;;;7.51;82.81
10992;BME280;5549;47.028;15.514;2023-04-15T00:10:08;95147.88;;;7.60;81.95
10992;BME280;5549;47.028;15.514;2023-04-15T00:12:35;95145.97;;;7.62;82.58
10992;BME280;5549;47.028;15.514;2023-04-15T00:15:07;95143.72;;;7.67;82.24
10992;BME280;5549;47.028;15.514;2023-04-15T00:17:35;95141.69;;;7.61;82.37
10992;BME280;5549;47.028;15.514;2023-04-15T00:20:06;95137.63;;;7.49;82.71
10992;BME280;5549;47.028;15.514;2023-04-15T00:22:34;95144.94;;;7.45;83.40
10992;BME280;5549;47.028;15.514;2023-04-15T00:25:02;95136.53;;;7.51;82.20
10992;BME280;5549;47.028;15.514;2023-04-15T00:27:29;95140.63;;;7.54;81.87
10992;BME280;5549;47.028;15.514;2023-04-15T00:29:59;95142.22;;;7.64;81.56
10992;BME280;5549;47.028;15.514;2023-04-15T00:32:27;95128.72;;;7.69;81.78
10992;BME280;5549;47.028;15.514;2023-04-15T00:34:55;95134.44;;;7.55;82.20
10992;BME280;5549;47.028;15.514;2023-04-15T00:37:25;95143.53;;;7.51;82.42
10992;BME280;5549;47.028;15.514;2023-04-15T00:39:54;95142.28;;;7.55;82.43
10992;BME280;5549;47.028;15.514;2023-04-15T00:42:25;95140.16;;;7.68;81.83
10992;BME280;5549;47.028;15.514;2023-04-15T00:44:55;95140.53;;;7.73;81.80
10992;BME280;5549;47.028;15.514;2023-04-15T00:47:22;95138.31;;;7.78;81.87
10992;BME280;5549;47.028;15.514;2023-04-15T00:49:52;95138.97;;;7.80;81.58
10992;BME280;5549;47.028;15.514;2023-04-15T00:52:19;95141.31;;;7.83;81.57
10992;BME280;5549;47.028;15.514;2023-04-15T00:54:50;95142.94;;;7.84;81.24
10992;BME280;5549;47.028;15.514;2023-04-15T00:57:20;95144.06;;;7.82;80.89
10992;BME280;5549;47.028;15.514;2023-04-15T00:59:50;95136.66;;;7.77;81.12
10992;BME280;5549;47.028;15.514;2023-04-15T01:02:19;95136.56;;;7.69;80.87
10992;BME280;5549;47.028;15.514;2023-04-15T01:04:49;95141.22;;;7.75;81.38
10992;BME280;5549;47.028;15.514;2023-04-15T01:07:17;95128.94;;;7.58;81.69
10992;BME280;5549;47.028;15.514;2023-04-15T01:09:45;95138.22;;;7.43;82.09
10992;BME280;5549;47.028;15.514;2023-04-15T01:12:14;95138.16;;;7.52;82.67
10992;BME280;5549;47.028;15.514;2023-04-15T01:14:43;95133.38;;;7.48;82.62
10992;BME280;5549;47.028;15.514;2023-04-15T01:17:13;95136.28;;;7.45;82.69
10992;BME280;5549;47.028;15.514;2023-04-15T01:19:41;95138.41;;;7.59;81.53
10992;BME280;5549;47.028;15.514;2023-04-15T01:22:11;95138.47;;;7.49;82.67
10992;BME280;5549;47.028;15.514;2023-04-15T01:24:39;95136.81;;;7.48;82.53
10992;BME280;5549;47.028;15.514;2023-04-15T01:27:08;95137.16;;;7.35;83.33
10992;BME280;5549;47.028;15.514;2023-04-15T01:29:37;95140.81;;;7.43;82.42
10992;BME280;5549;47.028;15.514;2023-04-15T01:32:07;95141.50;;;7.45;82.36
10992;BME280;5549;47.028;15.514;2023-04-15T01:34:37;95140.81;;;7.43;82.37
10992;BME280;5549;47.028;15.514;2023-04-15T01:37:04;95140.94;;;7.51;82.37
10992;BME280;5549;47.028;15.514;2023-04-15T01:39:36;95147.50;;;7.27;83.00
10992;BME280;5549;47.028;15.514;2023-04-15T01:42:04;95144.00;;;7.36;82.78
10992;BME280;5549;47.028;15.514;2023-04-15T01:44:37;95151.94;;;7.45;82.72
10992;BME280;5549;47.028;15.514;2023-04-15T01:47:06;95144.31;;;7.33;82.99
10992;BME280;5549;47.028;15.514;2023-04-15T01:49:38;95145.44;;;7.21;83.59
10992;BME280;5549;47.028;15.514;2023-04-15T01:52:14;95142.66;;;7.32;82.55
10992;BME280;5549;47.028;15.514;2023-04-15T01:54:50;95146.28;;;7.22;84.13
10992;BME280;5549;47.028;15.514;2023-04-15T01:57:23;95147.31;;;7.38;82.63
10992;BME280;5549;47.028;15.514;2023-04-15T01:59:56;95144.13;;;7.45;82.34
10992;BME280;5549;47.028;15.514;2023-04-15T02:02:27;95141.13;;;7.39;83.23
10992;BME280;5549;47.028;15.514;2023-04-15T02:04:59;95146.53;;;7.28;83.60
10992;BME280;5549;47.028;15.514;2023-04-15T02:07:29;95156.09;;;7.37;82.81
10992;BME280;5549;47.028;15.514;2023-04-15T02:09:59;95154.63;;;7.25;83.86
10992;BME280;5549;47.028;15.514;2023-04-15T02:12:29;95145.84;;;7.26;83.48
10992;BME280;5549;47.028;15.514;2023-04-15T02:14:59;95148.50;;;7.44;83.27
10992;BME280;5549;47.028;15.514;2023-04-15T02:17:26;95157.06;;;7.36;82.47
10992;BME280;5549;47.028;15.514;2023-04-15T02:19:55;95154.06;;;7.31;82.42
10992;BME280;5549;47.028;15.514;2023-04-15T02:22:25;95154.16;;;7.39;82.75
10992;BME280;5549;47.028;15.514;2023-04-15T02:24:53;95154.28;;;7.48;81.60
10992;BME280;5549;47.028;15.514;2023-04-15T02:27:20;95161.97;;;7.49;81.69
10992;BME280;5549;47.028;15.514;2023-04-15T02:29:48;95157.13;;;7.54;81.86
10992;BME280;5549;47.028;15.514;2023-04-15T02:32:19;95158.06;;;7.63;80.91
10992;BME280;5549;47.028;15.514;2023-04-15T02:34:48;95155.72;;;7.60;81.01
10992;BME280;5549;47.028;15.514;2023-04-15T02:37:18;95161.53;;;7.54;81.27
10992;BME280;5549;47.028;15.514;2023-04-15T02:39:46;95156.25;;;7.63;81.06
10992;BME280;5549;47.028;15.514;2023-04-15T02:42:16;95156.69;;;7.59;82.02
10992;BME280;5549;47.028;15.514;2023-04-15T02:44:44;95155.63;;;7.52;82.16
10992;BME280;5549;47.028;15.514;2023-04-15T02:47:14;95159.88;;;7.53;81.89
10992;BME280;5549;47.028;15.514;2023-04-15T02:49:43;95155.53;;;7.44;82.62
10992;BME280;5549;47.028;15.514;2023-04-15T02:52:11;95150.66;;;7.58;81.47
10992;BME280;5549;47.028;15.514;2023-04-15T02:54:41;95154.09;;;7.59;81.59
10992;BME280;5549;47.028;15.514;2023-04-15T02:57:14;95156.06;;;7.47;82.52
10992;BME280;5549;47.028;15.514;2023-04-15T02:59:44;95155.50;;;7.53;82.29
10992;BME280;5549;47.028;15.514;2023-04-15T03:02:12;95156.47;;;7.52;82.41
10992;BME280;5549;47.028;15.514;2023-04-15T03:04:40;95159.41;;;7.39;82.71
10992;BME280;5549;47.028;15.514;2023-04-15T03:07:08;95151.94;;;7.45;82.86
10992;BME280;5549;47.028;15.514;2023-04-15T03:09:36;95156.50;;;7.43;83.01
10992;BME280;5549;47.028;15.514;2023-04-15T03:12:05;95158.63;;;7.29;83.35
10992;BME280;5549;47.028;15.514;2023-04-15T03:14:33;95158.31;;;7.32;83.79
10992;BME280;5549;47.028;15.514;2023-04-15T03:17:00;95159.16;;;7.33;83.25
10992;BME280;5549;47.028;15.514;2023-04-15T03:19:30;95160.25;;;7.30;83.16
10992;BME280;5549;47.028;15.514;2023-04-15T03:22:00;95157.81;;;7.19;84.46
10992;BME280;5549;47.028;15.514;2023-04-15T03:24:29;95168.38;;;7.27;84.30
10992;BME280;5549;47.028;15.514;2023-04-15T03:26:57;95163.97;;;7.28;83.23
10992;BME280;5549;47.028;15.514;2023-04-15T03:29:24;95165.63;;;7.29;84.21
10992;BME280;5549;47.028;15.514;2023-04-15T03:31:52;95171.19;;;7.06;85.60
10992;BME280;5549;47.028;15.514;2023-04-15T03:34:22;95173.19;;;7.22;85.00
10992;BME280;5549;47.028;15.514;2023-04-15T03:36:52;95170.59;;;7.22;84.53
10992;BME280;5549;47.028;15.514;2023-04-15T03:39:20;95157.72;;;7.11;84.62
10992;BME280;5549;47.028;15.514;2023-04-15T03:41:49;95161.16;;;7.12;85.02
10992;BME280;5549;47.028;15.514;2023-04-15T03:44:19;95176.50;;;7.24;84.12
10992;BME280;5549;47.028;15.514;2023-04-15T03:46:48;95168.81;;;7.23;84.75
10992;BME280;5549;47.028;15.514;2023-04-15T03:49:16;95170.06;;;7.19;84.97
10992;BME280;5549;47.028;15.514;2023-04-15T03:51:44;95167.47;;;7.09;85.61
10992;BME280;5549;47.028;15.514;2023-04-15T03:54:12;95170.00;;;6.72;87.64
10992;BME280;5549;47.028;15.514;2023-04-15T03:56:43;95172.13;;;7.15;85.50
10992;BME280;5549;47.028;15.514;2023-04-15T03:59:15;95167.78;;;6.67;87.87
10992;BME280;5549;47.028;15.514;2023-04-15T04:01:45;95169.03;;;6.73;88.53
10992;BME280;5549;47.028;15.514;2023-04-15T04:04:12;95166.53;;;6.91;87.08
10992;BME280;5549;47.028;15.514;2023-04-15T04:06:40;95166.66;;;6.89;87.64
10992;BME280;5549;47.028;15.514;2023-04-15T04:09:08;95167.78;;;6.67;88.53
10992;BME280;5549;47.028;15.514;2023-04-15T04:11:38;95163.13;;;6.61;88.92
10992;BME280;5549;47.028;15.514;2023-04-15T04:14:06;95161.50;;;6.41;90.81
10992;BME280;5549;47.028;15.514;2023-04-15T04:16:35;95162.81;;;6.93;88.55
10992;BME280;5549;47.028;15.514;2023-04-15T04:19:05;95172.56;;;7.01;87.68
10992;BME280;5549;47.028;15.514;2023-04-15T04:21:33;95175.97;;;7.11;87.37
10992;BME280;5549;47.028;15.514;2023-04-15T04:24:01;95182.03;;;7.12;86.68
10992;BME280;5549;47.028;15.514;2023-04-15T04:26:31;95176.03;;;6.72;87.72
10992;BME280;5549;47.028;15.514;2023-04-15T04:29:01;95178.78;;;6.52;90.63
10992;BME280;5549;47.028;15.514;2023-04-15T04:31:29;95183.28;;;6.98;88.17
10992;BME280;5549;47.028;15.514;2023-04-15T04:34:00;95188.09;;;6.83;87.78
10992;BME280;5549;47.028;15.514;2023-04-15T04:36:27;95186.19;;;6.56;90.35
10992;BME280;5549;47.028;15.514;2023-04-15T04:38:55;95193.19;;;6.94;88.43
10992;BME280;5549;47.028;15.514;2023-04-15T04:41:22;95189.72;;;7.13;87.26
10992;BME280;5549;47.028;15.514;2023-04-15T04:43:52;95196.63;;;6.95;88.11
10992;BME280;5549;47.028;15.514;2023-04-15T04:46:19;95198.94;;;7.07;87.14
10992;BME280;5549;47.028;15.514;2023-04-15T04:48:47;95197.09;;;7.27;86.21
10992;BME280;5549;47.028;15.514;2023-04-15T04:51:16;95205.03;;;7.35;86.11
10992;BME280;5549;47.028;15.514;2023-04-15T04:53:44;95199.44;;;7.30;86.69
10992;BME280;5549;47.028;15.514;2023-04-15T04:56:12;95201.41;;;6.80;89.42
10992;BME280;5549;47.028;15.514;2023-04-15T04:58:39;95201.69;;;6.87;89.35
10992;BME280;5549;47.028;15.514;2023-04-15T05:01:07;95204.97;;;7.08;87.81
10992;BME280;5549;47.028;15.514;2023-04-15T05:03:37;95200.69;;;7.26;87.08
10992;BME280;5549;47.028;15.514;2023-04-15T05:06:07;95202.31;;;7.27;87.68
10992;BME280;5549;47.028;15.514;2023-04-15T05:08:38;95199.81;;;7.35;86.83
10992;BME280;5549;47.028;15.514;2023-04-15T05:11:06;95200.53;;;7.28;87.20
10992;BME280;5549;47.028;15.514;2023-04-15T05:13:34;95210.13;;;7.37;85.92
10992;BME280;5549;47.028;15.514;2023-04-15T05:16:04;95206.22;;;7.51;86.33
10992;BME280;5549;47.028;15.514;2023-04-15T05:18:32;95203.91;;;7.48;86.42
10992;BME280;5549;47.028;15.514;2023-04-15T05:21:02;95210.88;;;7.57;85.63
10992;BME280;5549;47.028;15.514;2023-04-15T05:23:30;95210.41;;;7.71;85.59
10992;BME280;5549;47.028;15.514;2023-04-15T05:26:01;95210.69;;;7.68;85.76
10992;BME280;5549;47.028;15.514;2023-04-15T05:28:31;95210.31;;;7.63;85.68
10992;BME280;5549;47.028;15.514;2023-04-15T05:30:58;95212.63;;;7.66;85.00
10992;BME280;5549;47.028;15.514;2023-04-15T05:33:26;95219.75;;;7.73;85.82
10992;BME280;5549;47.028;15.514;2023-04-15T05:35:53;95227.59;;;7.73;85.44
10992;BME280;5549;47.028;15.514;2023-04-15T05:38:21;95232.84;;;7.64;85.35
10992;BME280;5549;47.028;15.514;2023-04-15T05:40:51;95239.06;;;7.53;86.11
10992;BME280;5549;47.028;15.514;2023-04-15T05:43:20;95235.19;;;7.67;85.63
10992;BME280;5549;47.028;15.514;2023-04-15T05:45:47;95246.50;;;7.58;85.80
10992;BME280;5549;47.028;15.514;2023-04-15T05:48:15;95252.53;;;7.58;85.38
10992;BME280;5549;47.028;15.514;2023-04-15T05:50:44;95253.06;;;7.62;86.02
10992;BME280;5549;47.028;15.514;2023-04-15T05:53:12;95251.44;;;7.61;85.96
10992;BME280;5549;47.028;15.514;2023-04-15T05:55:42;95256.25;;;7.56;86.47
10992;BME280;5549;47.028;15.514;2023-04-15T05:58:09;95253.75;;;7.64;85.95
10992;BME280;5549;47.028;15.514;2023-04-15T06:00:39;95260.63;;;7.65;85.95
10992;BME280;5549;47.028;15.514;2023-04-15T06:03:06;95261.44;;;7.65;86.01
10992;BME280;5549;47.028;15.514;2023-04-15T06:05:34;95258.13;;;7.73;86.56
10992;BME280;5549;47.028;15.514;2023-04-15T06:08:04;95263.06;;;8.03;87.29
10992;BME280;5549;47.028;15.514;2023-04-15T06:10:35;95264.84;;;8.40;86.57
10992;BME280;5549;47.028;15.514;2023-04-15T06:13:04;95268.47;;;8.75;86.13
10992;BME280;5549;47.028;15.514;2023-04-15T06:15:32;95271.16;;;8.10;85.15
10992;BME280;5549;47.028;15.514;2023-04-15T06:18:03;95270.28;;;7.92;86.14
10992;BME280;5549;47.028;15.514;2023-04-15T06:20:31;95278.63;;;8.60;84.65
10992;BME280;5549;47.028;15.514;2023-04-15T06:23:01;95276.84;;;8.96;83.82
10992;BME280;5549;47.028;15.514;2023-04-15T06:25:28;95268.25;;;9.04;82.02
10992;BME280;5549;47.028;15.514;2023-04-15T06:27:58;95279.25;;;7.43;88.15
10992;BME280;5549;47.028;15.514;2023-04-15T06:30:26;95275.78;;;7.52;88.15
10992;BME280;5549;47.028;15.514;2023-04-15T06:32:54;95276.75;;;7.51;89.31
10992;BME280;5549;47.028;15.514;2023-04-15T06:35:25;95287.09;;;7.89;88.75
10992;BME280;5549;47.028;15.514;2023-04-15T06:37:55;95290.19;;;8.30;86.54
10992;BME280;5549;47.028;15.514;2023-04-15T06:40:25;95288.91;;;7.32;89.91
10992;BME280;5549;47.028;15.514;2023-04-15T06:42:53;95291.75;;;7.39;89.91
10992;BME280;5549;47.028;15.514;2023-04-15T06:45:21;95293.31;;;7.79;88.88
10992;BME280;5549;47.028;15.514;2023-04-15T06:47:51;95295.09;;;8.15;86.99
10992;BME280;5549;47.028;15.514;2023-04-15T06:50:18;95294.50;;;7.37;90.21
10992;BME280;5549;47.028;15.514;2023-04-15T06:52:47;95302.03;;;7.60;89.76
10992;BME280;5549;47.028;15.514;2023-04-15T06:55:15;95308.50;;;8.02;87.38
10992;BME280;5549;47.028;15.514;2023-04-15T06:57:45;95306.47;;;8.24;86.11
10992;BME280;5549;47.028;15.514;2023-04-15T07:00:13;95304.13;;;7.47;89.76
10992;BME280;5549;47.028;15.514;2023-04-15T07:02:41;95314.81;;;7.63;89.56
10992;BME280;5549;47.028;15.514;2023-04-15T07:05:09;95321.66;;;8.11;87.75
10992;BME280;5549;47.028;15.514;2023-04-15T07:07:37;95329.44;;;8.30;86.69
10992;BME280;5549;47.028;15.514;2023-04-15T07:10:08;95329.91;;;8.16;86.71
10992;BME280;5549;47.028;15.514;2023-04-15T07:12:38;95330.72;;;8.16;87.45
10992;BME280;5549;47.028;15.514;2023-04-15T07:15:07;95331.16;;;8.49;85.97
10992;BME280;5549;47.028;15.514;2023-04-15T07:17:35;95333.19;;;8.55;85.40
10992;BME280;5549;47.028;15.514;2023-04-15T07:20:06;95339.69;;;8.14;86.65
10992;BME280;5549;47.028;15.514;2023-04-15T07:22:36;95344.63;;;8.54;85.22
10992;BME280;5549;47.028;15.514;2023-04-15T07:25:08;95344.97;;;8.68;84.44
10992;BME280;5549;47.028;15.514;2023-04-15T07:27:38;95343.69;;;8.08;87.89
10992;BME280;5549;47.028;15.514;2023-04-15T07:30:08;95346.72;;;7.57;91.25
10992;BME280;5549;47.028;15.514;2023-04-15T07:32:38;95348.50;;;7.56;91.41
10992;BME280;5549;47.028;15.514;2023-04-15T07:35:07;95359.63;;;8.15;88.52
10992;BME280;5549;47.028;15.514;2023-04-15T07:37:37;95366.19;;;8.38;87.18
10992;BME280;5549;47.028;15.514;2023-04-15T07:40:10;95369.19;;;8.43;86.79
10992;BME280;5549;47.028;15.514;2023-04-15T07:42:40;95369.22;;;8.33;85.65
10992;BME280;5549;47.028;15.514;2023-04-15T07:45:09;95365.13;;;8.58;85.26
10992;BME280;5549;47.028;15.514;2023-04-15T07:47:37;95370.19;;;8.60;84.88
10992;BME280;5549;47.028;15.514;2023-04-15T07:50:09;95365.47;;;8.73;84.36
10992;BME280;5549;47.028;15.514;2023-04-15T07:52:37;95370.63;;;8.55;84.75
10992;BME280;5549;47.028;15.514;2023-04-15T07:55:08;95371.31;;;8.57;85.00
10992;BME280;5549;47.028;15.514;2023-04-15T07:57:36;95363.84;;;8.62;84.92
10992;BME280;5549;47.028;15.514;2023-04-15T08:00:05;95368.69;;;8.57;85.58
10992;BME280;5549;47.028;15.514;2023-04-15T08:02:33;95373.16;;;8.47;86.81
10992;BME280;5549;47.028;15.514;2023-04-15T08:05:01;95367.81;;;8.39;87.10
10992;BME280;5549;47.028;15.514;2023-04-15T08:07:30;95370.16;;;8.32;87.74
10992;BME280;5549;47.028;15.514;2023-04-15T08:09:57;95371.34;;;8.11;89.27
10992;BME280;5549;47.028;15.514;2023-04-15T08:12:26;95370.28;;;7.94;90.50
10992;BME280;5549;47.028;15.514;2023-04-15T08:14:56;95375.56;;;7.75;90.73
10992;BME280;5549;47.028;15.514;2023-04-15T08:17:24;95369.53;;;7.74;92.13
10992;BME280;5549;47.028;15.514;2023-04-15T08:19:52;95368.28;;;7.68;94.72
10992;BME280;5549;47.028;15.514;2023-04-15T08:22:22;95372.00;;;7.76;93.50
10992;BME280;5549;47.028;15.514;2023-04-15T08:24:50;95378.19;;;7.65;95.21
10992;BME280;5549;47.028;15.514;2023-04-15T08:27:19;95371.03;;;7.67;93.50
10992;BME280;5549;47.028;15.514;2023-04-15T08:29:48;95378.19;;;7.65;96.26
10992;BME280;5549;47.028;15.514;2023-04-15T08:32:15;95374.69;;;8.03;94.37
10992;BME280;5549;47.028;15.514;2023-04-15T08:34:44;95381.88;;;8.38;92.79
10992;BME280;5549;47.028;15.514;2023-04-15T08:37:11;95389.81;;;8.46;91.38
10992;BME280;5549;47.028;15.514;2023-04-15T08:39:39;95401.84;;;8.66;89.87
10992;BME280;5549;47.028;15.514;2023-04-15T08:42:12;95402.84;;;8.93;88.51
10992;BME280;5549;47.028;15.514;2023-04-15T08:44:47;95413.78;;;9.06;88.07
10992;BME280;5549;47.028;15.514;2023-04-15T08:47:19;95404.13;;;9.07;88.26
10992;BME280;5549;47.028;15.514;2023-04-15T08:49:48;95411.19;;;9.24;87.56
10992;BME280;5549;47.028;15.514;2023-04-15T08:52:19;95414.03;;;9.30;86.32
10992;BME280;5549;47.028;15.514;2023-04-15T08:54:47;95414.84;;;9.13;85.60
10992;BME280;5549;47.028;15.514;2023-04-15T08:57:17;95417.69;;;9.38;85.03
10992;BME280;5549;47.028;15.514;2023-04-15T08:59:46;95413.34;;;9.28;85.15
10992;BME280;5549;47.028;15.514;2023-04-15T09:02:16;95410.94;;;9.35;85.17
10992;BME280;5549;47.028;15.514;2023-04-15T09:04:46;95416.13;;;9.45;84.86
10992;BME280;5549;47.028;15.514;2023-04-15T09:07:14;95417.53;;;9.57;84.26
10992;BME280;5549;47.028;15.514;2023-04-15T09:09:42;95413.63;;;9.61;84.52
10992;BME280;5549;47.028;15.514;2023-04-15T09:12:12;95418.28;;;9.67;83.37
10992;BME280;5549;47.028;15.514;2023-04-15T09:14:44;95412.03;;;9.86;82.44
10992;BME280;5549;47.028;15.514;2023-04-15T09:17:18;95423.81;;;9.82;81.94
10992;BME280;5549;47.028;15.514;2023-04-15T09:19:47;95422.59;;;9.94;81.03
10992;BME280;5549;47.028;15.514;2023-04-15T09:22:14;95421.16;;;10.00;81.66
10992;BME280;5549;47.028;15.514;2023-04-15T09:24:44;95421.31;;;9.98;82.50
10992;BME280;5549;47.028;15.514;2023-04-15T09:27:15;95428.25;;;10.07;81.60
10992;BME280;5549;47.028;15.514;2023-04-15T09:29:43;95425.53;;;10.17;80.99
10992;BME280;5549;47.028;15.514;2023-04-15T09:32:15;95426.97;;;10.11;80.96
10992;BME280;5549;47.028;15.514;2023-04-15T09:34:43;95429.59;;;10.11;80.44
10992;BME280;5549;47.028;15.514;2023-04-15T09:37:11;95423.63;;;10.01;82.49
10992;BME280;5549;47.028;15.514;2023-04-15T09:39:48;95427.94;;;10.28;81.83
10992;BME280;5549;47.028;15.514;2023-04-15T09:42:17;95423.72;;;10.35;80.31
10992;BME280;5549;47.028;15.514;2023-04-15T09:44:51;95431.09;;;10.14;77.57
10992;BME280;5549;47.028;15.514;2023-04-15T09:47:29;95433.41;;;10.17;80.28
10992;BME280;5549;47.028;15.514;2023-04-15T09:50:00;95424.38;;;10.37;79.22
10992;BME280;5549;47.028;15.514;2023-04-15T09:52:30;95421.53;;;10.48;77.32
10992;BME280;5549;47.028;15.514;2023-04-15T09:55:00;95434.66;;;10.48;77.39
10992;BME280;5549;47.028;15.514;2023-04-15T09:57:34;95427.75;;;10.47;76.72
10992;BME280;5549;47.028;15.514;2023-04-15T10:00:03;95439.22;;;10.46;76.16
10992;BME280;5549;47.028;15.514;2023-04-15T10:02:35;95434.66;;;10.48;75.69
10992;BME280;5549;47.028;15.514;2023-04-15T10:05:04;95443.13;;;10.42;77.29
10992;BME280;5549;47.028;15.514;2023-04-15T10:07:33;95438.59;;;10.52;76.45
10992;BME280;5549;47.028;15.514;2023-04-15T10:10:04;95447.09;;;10.46;76.92
10992;BME280;5549;47.028;15.514;2023-04-15T10:12:36;95441.75;;;10.56;77.21
10992;BME280;5549;47.028;15.514;2023-04-15T10:15:06;95449.03;;;10.70;75.63
10992;BME280;5549;47.028;15.514;2023-04-15T10:17:43;95443.59;;;10.64;74.71
10992;BME280;5549;47.028;15.514;2023-04-15T10:20:12;95449.66;;;10.64;73.68
10992;BME280;5549;47.028;15.514;2023-04-15T10:22:40;95444.28;;;10.74;75.52
10992;BME280;5549;47.028;15.514;2023-04-15T10:25:09;95446.00;;;10.91;73.91
10992;BME280;5549;47.028;15.514;2023-04-15T10:27:40;95443.00;;;10.78;74.88
10992;BME280;5549;47.028;15.514;2023-04-15T10:30:09;95448.44;;;10.84;74.67
10992;BME280;5549;47.028;15.514;2023-04-15T10:32:41;95450.25;;;10.84;76.08
10992;BME280;5549;47.028;15.514;2023-04-15T10:35:09;95455.31;;;10.77;76.79
10992;BME280;5549;47.028;15.514;2023-04-15T10:37:39;95456.31;;;10.50;75.65
10992;BME280;5549;47.028;15.514;2023-04-15T10:40:27;95454.16;;;10.80;76.24
10992;BME280;5549;47.028;15.514;2023-04-15T10:43:01;95462.22;;;10.52;77.51
10992;BME280;5549;47.028;15.514;2023-04-15T10:45:32;95451.09;;;10.58;75.78
10992;BME280;5549;47.028;15.514;2023-04-15T10:48:05;95453.47;;;10.70;76.09
10992;BME280;5549;47.028;15.514;2023-04-15T10:50:33;95461.66;;;10.67;75.73
10992;BME280;5549;47.028;15.514;2023-04-15T10:53:03;95451.50;;;10.72;72.90
10992;BME280;5549;47.028;15.514;2023-04-15T10:55:33;95455.72;;;10.65;72.94
10992;BME280;5549;47.028;15.514;2023-04-15T10:58:01;95458.63;;;10.53;72.67
10992;BME280;5549;47.028;15.514;2023-04-15T11:00:31;95464.94;;;10.69;71.56
10992;BME280;5549;47.028;15.514;2023-04-15T11:03:07;95460.16;;;10.64;70.58
10992;BME280;5549;47.028;15.514;2023-04-15T11:05:48;95468.75;;;10.48;70.51
10992;BME280;5549;47.028;15.514;2023-04-15T11:08:19;95462.63;;;10.66;71.33
10992;BME280;5549;47.028;15.514;2023-04-15T11:10:52;95466.91;;;10.67;70.74
10992;BME280;5549;47.028;15.514;2023-04-15T11:13:26;95461.38;;;10.78;70.25
10992;BME280;5549;47.028;15.514;2023-04-15T11:16:01;95470.94;;;10.87;71.49
10992;BME280;5549;47.028;15.514;2023-04-15T11:18:32;95464.03;;;10.86;72.75
10992;BME280;5549;47.028;15.514;2023-04-15T11:21:03;95468.91;;;10.73;73.39
10992;BME280;5549;47.028;15.514;2023-04-15T11:23:35;95466.13;;;10.74;70.94
10992;BME280;5549;47.028;15.514;2023-04-15T11:26:07;95460.88;;;10.74;71.05
10992;BME280;5549;47.028;15.514;2023-04-15T11:28:39;95462.00;;;10.72;71.05
10992;BME280;5549;47.028;15.514;2023-04-15T11:31:09;95467.28;;;10.80;70.20
10992;BME280;5549;47.028;15.514;2023-04-15T11:33:44;95470.94;;;10.87;70.40
10992;BME280;5549;47.028;15.514;2023-04-15T11:36:13;95467.66;;;10.85;68.57
10992;BME280;5549;47.028;15.514;2023-04-15T11:38:45;95466.00;;;10.84;67.42
10992;BME280;5549;47.028;15.514;2023-04-15T11:41:13;95468.34;;;10.95;68.97
10992;BME280;5549;47.028;15.514;2023-04-15T11:43:43;95471.84;;;10.70;69.74
10992;BME280;5549;47.028;15.514;2023-04-15T11:46:11;95472.47;;;10.98;69.91
10992;BME280;5549;47.028;15.514;2023-04-15T11:48:43;95475.66;;;11.17;69.46
10992;BME280;5549;47.028;15.514;2023-04-15T11:51:14;95467.78;;;11.17;67.67
10992;BME280;5549;47.028;15.514;2023-04-15T11:53:43;95471.00;;;11.03;69.79
10992;BME280;5549;47.028;15.514;2023-04-15T11:56:17;95471.41;;;11.24;70.44
10992;BME280;5549;47.028;15.514;2023-04-15T11:58:52;95477.69;;;11.40;69.76
10992;BME280;5549;47.028;15.514;2023-04-15T12:01:31;95468.50;;;11.44;71.79
10992;BME280;5549;47.028;15.514;2023-04-15T12:04:01;95476.56;;;11.42;71.92
10992;BME280;5549;47.028;15.514;2023-04-15T12:06:32;95472.75;;;11.37;71.55
10992;BME280;5549;47.028;15.514;2023-04-15T12:09:07;95469.84;;;11.56;70.82
10992;BME280;5549;47.028;15.514;2023-04-15T12:11:42;95470.66;;;11.48;68.12
10992;BME280;5549;47.028;15.514;2023-04-15T12:14:14;95470.00;;;11.54;66.98
10992;BME280;5549;47.028;15.514;2023-04-15T12:16:45;95476.75;;;11.57;67.50
10992;BME280;5549;47.028;15.514;2023-04-15T12:19:21;95464.91;;;11.53;67.25
10992;BME280;5549;47.028;15.514;2023-04-15T12:21:50;95466.22;;;11.57;68.60
10992;BME280;5549;47.028;15.514;2023-04-15T12:24:21;95477.41;;;11.59;67.45
10992;BME280;5549;47.028;15.514;2023-04-15T12:26:51;95474.16;;;11.73;64.54
10992;BME280;5549;47.028;15.514;2023-04-15T12:29:26;95476.75;;;11.57;66.43
10992;BME280;5549;47.028;15.514;2023-04-15T12:32:03;95476.44;;;11.76;67.65
10992;BME280;5549;47.028;15.514;2023-04-15T12:34:36;95478.47;;;11.99;68.49
10992;BME280;5549;47.028;15.514;2023-04-15T12:37:06;95484.06;;;11.96;67.59
10992;BME280;5549;47.028;15.514;2023-04-15T12:39:36;95482.09;;;11.98;65.59
10992;BME280;5549;47.028;15.514;2023-04-15T12:42:06;95484.41;;;12.09;65.53
10992;BME280;5549;47.028;15.514;2023-04-15T12:44:38;95484.72;;;12.06;66.33
10992;BME280;5549;47.028;15.514;2023-04-15T12:47:07;95488.94;;;11.74;63.78
10992;BME280;5549;47.028;15.514;2023-04-15T12:49:38;95485.38;;;11.92;63.75
10992;BME280;5549;47.028;15.514;2023-04-15T12:52:05;95492.50;;;12.24;63.71
10992;BME280;5549;47.028;15.514;2023-04-15T12:54:35;95493.97;;;12.18;65.27
10992;BME280;5549;47.028;15.514;2023-04-15T12:57:03;95490.19;;;12.29;65.11
10992;BME280;5549;47.028;15.514;2023-04-15T12:59:31;95496.59;;;12.34;62.92
10992;BME280;5549;47.028;15.514;2023-04-15T13:01:58;95496.75;;;12.41;61.57
10992;BME280;5549;47.028;15.514;2023-04-15T13:04:30;95495.09;;;12.56;60.38
10992;BME280;5549;47.028;15.514;2023-04-15T13:06:59;95503.47;;;12.60;60.62
10992;BME280;5549;47.028;15.514;2023-04-15T13:09:29;95503.63;;;12.74;61.60
10992;BME280;5549;47.028;15.514;2023-04-15T13:12:00;95498.81;;;12.86;61.75
10992;BME280;5549;47.028;15.514;2023-04-15T13:14:30;95507.03;;;12.91;60.43
10992;BME280;5549;47.028;15.514;2023-04-15T13:17:00;95508.97;;;13.05;61.80
10992;BME280;5549;47.028;15.514;2023-04-15T13:19:29;95508.16;;;13.05;62.18